Darstellungsparameter: Aktuell verwendete Einstellungen:
Skalierung der Graphiken ... ?
xyx+y,   Skalierungsfaktor:      Skalierung: Modus: x, Faktor: 1
Darstellungszeitraum ... ?
Vom - - bis: - -   Zeitraum: 09.12.2019 - 10.12.2019
Min/Max/Avg-Anzeige ... ?
Zeige MMA aktuell
Zeige MMA Monat
Zeige MMA alles
Zeige --A aktuell
Zeige --A Monat
Zeige --A alles
Keine MMA-Anzeige
MMA:
Average (ber die Originaldaten)
MMA-Basis: 09.12.2019 - 10.12.2019
Quicknavigation für Darstellung... ?
Tage:      1T, 2T, 3T, 5T -1T -2T -3T -5T +1T +2T +3T +5T
Wochen: 1W, 2W, 3W -1W -2W -3W +1W +2W +3W
Monate: 1M, 3M, 6M -1M -3M -6M +1M +3M +6M
Jahre:    1J, 3J, 5J, 10J -1J -3J -5J -10J +1J +3J +5J +10J
Nutze für die Darstellung ... ?
Originaldaten oder Mittelwerte auf ...
Stundenbasis Tagesbasis Wochenbasis
Monatsbasis Jahresbasis      Datenbasis: Original-Daten
Darstellen als:
Statistik (Auto) Statistik J:M      Darstellung:
Zur Graphik,    zurück zur Übersicht aller Sensoren.
 
Tabellarische Datenbersicht: ?
 
Sensor: Nr:Datum:Temp:Feuchte:
Aussen-T/F 1 09-12-2019 00:01:18 8.7 C 20 %
2 09-12-2019 00:11:18 8.1 C 21 %
3 09-12-2019 00:21:17 8.4 C 21 %
4 09-12-2019 00:31:17 8.4 C 21 %
5 09-12-2019 00:41:17 8.5 C 20 %
6 09-12-2019 00:51:17 8.4 C 20 %
7 09-12-2019 01:01:17 8.4 C 20 %
8 09-12-2019 01:11:17 8.5 C 20 %
9 09-12-2019 01:21:18 8.1 C 20 %
10 09-12-2019 01:31:17 8 C 20 %
11 09-12-2019 01:41:17 8.3 C 20 %
12 09-12-2019 01:51:17 8.2 C 20 %
13 09-12-2019 02:01:17 7.8 C 20 %
14 09-12-2019 02:11:17 7.6 C 20 %
15 09-12-2019 02:21:17 7.4 C 21 %
16 09-12-2019 02:31:18 7.4 C 21 %
17 09-12-2019 02:41:18 7.1 C 23 %
18 09-12-2019 02:51:18 7.5 C 20 %
19 09-12-2019 03:01:17 7.5 C 20 %
20 09-12-2019 03:11:17 7.5 C 20 %
21 09-12-2019 03:21:17 7.5 C 20 %
22 09-12-2019 03:31:17 7.3 C 20 %
23 09-12-2019 03:41:17 6.8 C 23 %
24 09-12-2019 03:51:17 7.3 C 21 %
25 09-12-2019 04:01:17 7.3 C 20 %
Sensor: Nr:Datum:Temp:Feuchte:
Aussen-T/F 26 09-12-2019 04:11:17 7.9 C 20 %
27 09-12-2019 04:21:18 8 C 20 %
28 09-12-2019 04:31:18 7.6 C 20 %
29 09-12-2019 04:41:18 7.4 C 21 %
30 09-12-2019 04:51:17 6.9 C 25 %
31 09-12-2019 05:01:17 6.9 C 25 %
32 09-12-2019 05:11:17 7.4 C 20 %
33 09-12-2019 05:21:17 7.5 C 20 %
34 09-12-2019 05:31:17 7.4 C 20 %
35 09-12-2019 05:41:18 7.1 C 20 %
36 09-12-2019 05:51:17 7.2 C 20 %
37 09-12-2019 06:01:17 7.4 C 20 %
38 09-12-2019 06:11:17 7.4 C 20 %
39 09-12-2019 06:21:17 7.4 C 20 %
40 09-12-2019 06:31:17 7.6 C 20 %
41 09-12-2019 06:41:17 7.8 C 20 %
42 09-12-2019 06:51:18 7.7 C 20 %
43 09-12-2019 07:01:17 7.6 C 20 %
44 09-12-2019 07:11:18 7.5 C 20 %
45 09-12-2019 07:21:17 7.2 C 20 %
46 09-12-2019 07:31:17 7.2 C 20 %
47 09-12-2019 07:41:17 7.6 C 20 %
48 09-12-2019 07:51:18 7.5 C 20 %
49 09-12-2019 08:01:17 7.9 C 20 %
50 09-12-2019 08:11:17 7.8 C 20 %
Sensor: Nr:Datum:Temp:Feuchte:
Aussen-T/F 51 09-12-2019 08:21:17 7.9 C 20 %
52 09-12-2019 08:31:17 8 C 20 %
53 09-12-2019 08:41:17 7.9 C 20 %
54 09-12-2019 08:51:17 7.9 C 20 %
55 09-12-2019 09:01:17 7.8 C 20 %
56 09-12-2019 09:11:17 7.9 C 20 %
57 09-12-2019 09:21:17 7.5 C 20 %
58 09-12-2019 09:31:17 7.4 C 23 %
59 09-12-2019 09:41:17 7.5 C 21 %
60 09-12-2019 09:51:17 7.7 C 21 %
61 09-12-2019 10:01:17 7.9 C 21 %
62 09-12-2019 10:11:17 7.9 C 21 %
63 09-12-2019 10:21:17 7.9 C 20 %
64 09-12-2019 10:31:18 7.9 C 21 %
65 09-12-2019 10:41:18 7.9 C 21 %
66 09-12-2019 10:51:17 8.1 C 20 %
67 09-12-2019 11:01:17 8 C 20 %
68 09-12-2019 11:11:17 8.2 C 20 %
69 09-12-2019 11:21:17 8.4 C 20 %
70 09-12-2019 11:31:18 8.4 C 20 %
71 09-12-2019 11:41:18 8.3 C 20 %
72 09-12-2019 11:51:17 8.1 C 20 %
73 09-12-2019 12:01:17 8.2 C 20 %
74 09-12-2019 12:11:17 8 C 20 %
75 09-12-2019 12:21:18 8.1 C 20 %
Sensor: Nr:Datum:Temp:Feuchte:
Aussen-T/F 76 09-12-2019 12:31:17 8.3 C 20 %
77 09-12-2019 12:41:17 8.2 C 20 %
78 09-12-2019 12:51:17 8.3 C 20 %
79 09-12-2019 13:01:18 8.3 C 20 %
80 09-12-2019 13:11:18 8.3 C 20 %
81 09-12-2019 13:21:17 8.2 C 20 %
82 09-12-2019 13:31:17 8.1 C 20 %
83 09-12-2019 13:41:17 8.5 C 20 %
84 09-12-2019 13:51:17 8.8 C 20 %
85 09-12-2019 14:01:17 8.6 C 20 %
86 09-12-2019 14:11:17 8.5 C 20 %
87 09-12-2019 14:21:17 8.6 C 20 %
88 09-12-2019 14:31:17 8.4 C 20 %
89 09-12-2019 14:41:17 7.9 C 20 %
90 09-12-2019 14:51:18 8.4 C 20 %
91 09-12-2019 15:01:17 7.9 C 20 %
92 09-12-2019 15:11:17 7.3 C 25 %
93 09-12-2019 15:21:17 7 C 27 %
94 09-12-2019 15:31:18 7.1 C 26 %
95 09-12-2019 15:41:18 7.1 C 25 %
96 09-12-2019 15:51:17 7.4 C 23 %
97 09-12-2019 16:01:18 7.5 C 20 %
98 09-12-2019 16:11:18 7.5 C 20 %
99 09-12-2019 16:21:17 7.6 C 20 %
100 09-12-2019 16:31:18 7.3 C 20 %
Sensor: Nr:Datum:Temp:Feuchte:
Aussen-T/F 101 09-12-2019 16:41:18 7.4 C 20 %
102 09-12-2019 16:51:17 7.3 C 20 %
103 09-12-2019 17:01:18 7.1 C 20 %
104 09-12-2019 17:11:18 7.2 C 20 %
105 09-12-2019 17:21:17 6.7 C 25 %
106 09-12-2019 17:31:17 6.1 C 32 %
107 09-12-2019 17:41:17 5.9 C 36 %
108 09-12-2019 17:51:17 6 C 34 %
109 09-12-2019 18:01:18 6 C 30 %
110 09-12-2019 18:11:18 6.1 C 31 %
111 09-12-2019 18:21:17 6 C 33 %
112 09-12-2019 18:31:17 5.8 C 35 %
113 09-12-2019 18:41:17 5.7 C 37 %
114 09-12-2019 18:51:18 5.7 C 38 %
115 09-12-2019 19:01:17 5.6 C 35 %
116 09-12-2019 19:11:17 5.5 C 38 %
117 09-12-2019 19:21:17 5.6 C 39 %
118 09-12-2019 19:31:17 5.6 C 38 %
119 09-12-2019 19:41:17 5.6 C 38 %
120 09-12-2019 19:51:17 5.6 C 37 %
121 09-12-2019 20:01:17 5.6 C 35 %
122 09-12-2019 20:11:17 5.6 C 34 %
123 09-12-2019 20:21:17 5.6 C 35 %
124 09-12-2019 20:31:17 5.6 C 32 %
125 09-12-2019 20:41:17 5.4 C 33 %
Sensor: Nr:Datum:Temp:Feuchte:
Aussen-T/F 126 09-12-2019 20:51:17 5.3 C 34 %
127 09-12-2019 21:01:17 5.2 C 33 %
128 09-12-2019 21:11:18 5.1 C 34 %
129 09-12-2019 21:21:17 5.2 C 35 %
130 09-12-2019 21:31:17 5.3 C 32 %
131 09-12-2019 21:41:17 5.1 C 31 %
132 09-12-2019 21:51:17 5 C 31 %
133 09-12-2019 22:01:17 4.8 C 32 %
134 09-12-2019 22:11:17 4.7 C 31 %
135 09-12-2019 22:21:17 4.9 C 30 %
136 09-12-2019 22:31:17 4.9 C 30 %
137 09-12-2019 22:41:17 4.9 C 30 %
138 09-12-2019 22:51:18 4.7 C 30 %
139 09-12-2019 23:01:17 4.6 C 29 %
140 09-12-2019 23:11:17 4.5 C 29 %
141 09-12-2019 23:21:17 4.1 C 30 %
142 09-12-2019 23:31:18 4 C 30 %
143 09-12-2019 23:41:18 4.1 C 29 %
144 09-12-2019 23:51:17 4.1 C 29 %
145 10-12-2019 00:01:17 3.7 C 30 %
146 10-12-2019 00:11:17 4.1 C 28 %
147 10-12-2019 00:21:17 3.4 C 30 %
148 10-12-2019 00:31:17 3.6 C 30 %
149 10-12-2019 00:41:17 3.1 C 31 %
150 10-12-2019 00:51:17 3 C 31 %
Sensor: Nr:Datum:Temp:Feuchte:
Aussen-T/F 151 10-12-2019 01:01:17 2.4 C 33 %
152 10-12-2019 01:11:17 2.4 C 36 %
153 10-12-2019 01:21:17 2.5 C 36 %
154 10-12-2019 01:31:18 2.8 C 34 %
155 10-12-2019 01:41:18 2.4 C 34 %
156 10-12-2019 01:51:17 2.4 C 33 %
157 10-12-2019 02:01:18 2.7 C 33 %
158 10-12-2019 02:11:18 2.9 C 32 %
159 10-12-2019 02:21:17 2.3 C 33 %
160 10-12-2019 02:31:17 2.1 C 35 %
161 10-12-2019 02:41:17 1.7 C 37 %
162 10-12-2019 02:51:17 1.6 C 39 %
163 10-12-2019 03:01:17 1.8 C 40 %
164 10-12-2019 03:11:17 1.8 C 40 %
165 10-12-2019 03:21:17 1.8 C 40 %
166 10-12-2019 03:31:17 2 C 40 %
167 10-12-2019 03:41:17 1.4 C 41 %
168 10-12-2019 03:51:17 1.4 C 43 %
169 10-12-2019 04:01:17 1.1 C 43 %
170 10-12-2019 04:11:17 1.3 C 41 %
171 10-12-2019 04:21:17 0.6 C 41 %
172 10-12-2019 04:31:18 0.6 C 44 %
173 10-12-2019 04:41:18 0.7 C 45 %
174 10-12-2019 04:51:17 0.9 C 46 %
175 10-12-2019 05:01:17 1.1 C 44 %
Sensor: Nr:Datum:Temp:Feuchte:
Aussen-T/F 176 10-12-2019 05:11:17 1.8 C 41 %
177 10-12-2019 05:21:18 2.2 C 35 %
178 10-12-2019 05:31:18 2 C 35 %
179 10-12-2019 05:41:18 2 C 35 %
180 10-12-2019 05:51:17 1.8 C 36 %
181 10-12-2019 06:01:17 1.5 C 36 %
182 10-12-2019 06:11:17 1.6 C 37 %
183 10-12-2019 06:21:18 1.4 C 36 %
184 10-12-2019 06:31:17 1.1 C 38 %
185 10-12-2019 06:41:17 0.9 C 42 %
186 10-12-2019 06:51:17 1.2 C 42 %
187 10-12-2019 07:01:18 1.3 C 40 %
188 10-12-2019 07:11:18 1.5 C 40 %
189 10-12-2019 07:21:17 1.7 C 36 %
190 10-12-2019 07:31:17 1.2 C 37 %
191 10-12-2019 07:41:17 0.8 C 41 %
192 10-12-2019 07:51:17 0.8 C 41 %
193 10-12-2019 08:01:17 0.7 C 41 %
194 10-12-2019 08:11:17 0.8 C 41 %
195 10-12-2019 08:21:17 0.4 C 42 %
196 10-12-2019 08:31:18 0.6 C 42 %
197 10-12-2019 08:41:18 0.4 C 42 %
198 10-12-2019 08:51:17 0.4 C 43 %
199 10-12-2019 09:01:17 0.1 C 42 %
200 10-12-2019 09:11:17 0.5 C 44 %
Sensor: Nr:Datum:Temp:Feuchte:
Aussen-T/F 201 10-12-2019 09:21:17 0.8 C 44 %
202 10-12-2019 09:31:17 1.4 C 42 %
203 10-12-2019 09:41:17 1.7 C 39 %
204 10-12-2019 09:51:17 1.8 C 39 %
205 10-12-2019 10:01:17 2.2 C 36 %
206 10-12-2019 10:11:17 2.5 C 35 %
207 10-12-2019 10:21:17 2.7 C 33 %
208 10-12-2019 10:31:17 2.7 C 33 %
209 10-12-2019 10:41:17 2.5 C 33 %
210 10-12-2019 10:51:17 2.4 C 35 %
211 10-12-2019 11:01:17 2.4 C 34 %
212 10-12-2019 11:11:17 2.5 C 34 %
213 10-12-2019 11:21:17 2.3 C 35 %
214 10-12-2019 11:31:18 2.2 C 36 %
215 10-12-2019 11:41:18 2.9 C 34 %
216 10-12-2019 11:51:17 3.5 C 30 %
217 10-12-2019 12:01:17 3.7 C 30 %
218 10-12-2019 12:11:17 3.8 C 30 %
219 10-12-2019 12:21:17 3.9 C 30 %
220 10-12-2019 12:31:17 3.9 C 30 %
221 10-12-2019 12:41:17 4.3 C 27 %
222 10-12-2019 12:51:17 4.5 C 27 %
223 10-12-2019 13:01:17 4.6 C 27 %
224 10-12-2019 13:11:17 4.7 C 27 %
225 10-12-2019 13:21:17 4.7 C 27 %
Sensor: Nr:Datum:Temp:Feuchte:
Aussen-T/F 226 10-12-2019 13:31:17 4.9 C 27 %
227 10-12-2019 13:41:17 5.1 C 25 %
228 10-12-2019 13:51:17 5 C 25 %
229 10-12-2019 14:01:17 4.6 C 27 %
230 10-12-2019 14:11:17 4.2 C 28 %
231 10-12-2019 14:21:17 3.8 C 30 %
232 10-12-2019 14:31:18 3.9 C 30 %
233 10-12-2019 14:41:18 3.8 C 30 %
234 10-12-2019 14:51:17 3.5 C 30 %
235 10-12-2019 15:01:17 3.5 C 30 %
236 10-12-2019 15:11:17 3.3 C 31 %
237 10-12-2019 15:21:17 3.2 C 31 %
238 10-12-2019 15:31:17 3.1 C 31 %
239 10-12-2019 15:41:18 3.2 C 31 %
240 10-12-2019 15:51:17 2.9 C 31 %
241 10-12-2019 16:01:17 2.4 C 32 %
242 10-12-2019 16:11:17 3.1 C 31 %
243 10-12-2019 16:21:17 3.4 C 30 %
244 10-12-2019 16:31:17 3.5 C 28 %
245 10-12-2019 16:41:17 3.3 C 28 %
246 10-12-2019 16:51:17 3.3 C 26 %
247 10-12-2019 17:01:17 2.8 C 27 %
248 10-12-2019 17:11:17 2.7 C 27 %
249 10-12-2019 17:21:18 2.7 C 27 %
250 10-12-2019 17:31:17 2.7 C 27 %
Sensor: Nr:Datum:Temp:Feuchte:
Aussen-T/F 251 10-12-2019 17:41:17 2.6 C 27 %
252 10-12-2019 17:51:17 2.4 C 28 %
253 10-12-2019 18:01:17 2.3 C 27 %
254 10-12-2019 18:11:17 1.7 C 31 %
255 10-12-2019 18:21:17 1.9 C 32 %
256 10-12-2019 18:31:17 1.8 C 33 %
257 10-12-2019 18:41:17 1.7 C 34 %
258 10-12-2019 18:51:17 1.6 C 35 %
259 10-12-2019 19:01:17 1.5 C 36 %
260 10-12-2019 19:11:17 1.5 C 36 %
261 10-12-2019 19:21:17 1.6 C 36 %
262 10-12-2019 19:31:17 1.5 C 36 %
263 10-12-2019 19:41:18 1.7 C 36 %
264 10-12-2019 19:51:17 1.7 C 35 %
265 10-12-2019 20:01:17 2.2 C 32 %
266 10-12-2019 20:11:17 2.1 C 32 %
267 10-12-2019 20:21:17 2.7 C 29 %
268 10-12-2019 20:31:18 2.9 C 28 %
269 10-12-2019 20:41:18 2.6 C 30 %
270 10-12-2019 20:51:17 2.3 C 30 %
271 10-12-2019 21:01:17 2.5 C 31 %
272 10-12-2019 21:11:17 2.3 C 31 %
273 10-12-2019 21:21:17 2.1 C 32 %
274 10-12-2019 21:31:17 2 C 33 %
275 10-12-2019 21:41:18 1.8 C 35 %
Sensor: Nr:Datum:Temp:Feuchte:
Aussen-T/F 276 10-12-2019 21:51:17 1.8 C 36 %
277 10-12-2019 22:01:17 1.8 C 36 %
278 10-12-2019 22:11:17 2.1 C 35 %
279 10-12-2019 22:21:17 2.2 C 34 %
280 10-12-2019 22:31:17 2.4 C 32 %
281 10-12-2019 22:41:17 2.5 C 33 %
282 10-12-2019 22:51:18 2.8 C 31 %
283 10-12-2019 23:01:17 2.9 C 30 %
284 10-12-2019 23:11:17 3 C 30 %
285 10-12-2019 23:21:17 3 C 30 %
286 10-12-2019 23:31:17 2.9 C 31 %
287 10-12-2019 23:41:17 3.3 C 28 %
288 10-12-2019 23:51:17 3.3 C 30 %
Sensor: Nr:Datum:Temp:Feuchte:
G-T/H 1 09-12-2019 00:01:18 10.7 C 75 %
2 09-12-2019 00:11:18 10.7 C 75 %
3 09-12-2019 00:21:17 10.7 C 75 %
4 09-12-2019 00:31:17 10.7 C 75 %
5 09-12-2019 00:41:17 10.7 C 75 %
6 09-12-2019 00:51:17 10.7 C 75 %
7 09-12-2019 01:01:17 10.7 C 75 %
8 09-12-2019 01:11:17 10.7 C 75 %
9 09-12-2019 01:21:18 10.7 C 75 %
10 09-12-2019 01:31:17 10.7 C 75 %
11 09-12-2019 01:41:17 10.7 C 75 %
12 09-12-2019 01:51:17 10.7 C 75 %
13 09-12-2019 02:01:17 10.7 C 75 %
14 09-12-2019 02:11:17 10.7 C 75 %
15 09-12-2019 02:21:17 10.7 C 75 %
16 09-12-2019 02:31:18 10.7 C 75 %
17 09-12-2019 02:41:18 10.7 C 75 %
18 09-12-2019 02:51:18 10.7 C 75 %
19 09-12-2019 03:01:17 10.6 C 75 %
20 09-12-2019 03:11:17 10.7 C 74 %
21 09-12-2019 03:21:17 10.6 C 74 %
22 09-12-2019 03:31:17 10.6 C 74 %
23 09-12-2019 03:41:17 10.6 C 74 %
24 09-12-2019 03:51:17 10.6 C 74 %
25 09-12-2019 04:01:17 10.6 C 74 %
Sensor: Nr:Datum:Temp:Feuchte:
G-T/H 26 09-12-2019 04:11:17 10.6 C 74 %
27 09-12-2019 04:21:18 10.6 C 74 %
28 09-12-2019 04:31:18 10.6 C 74 %
29 09-12-2019 04:41:18 10.6 C 74 %
30 09-12-2019 04:51:17 10.6 C 74 %
31 09-12-2019 05:01:17 10.6 C 74 %
32 09-12-2019 05:11:17 10.6 C 74 %
33 09-12-2019 05:21:17 10.6 C 74 %
34 09-12-2019 05:31:17 10.6 C 74 %
35 09-12-2019 05:41:18 10.5 C 74 %
36 09-12-2019 05:51:17 10.5 C 74 %
37 09-12-2019 06:01:17 10.5 C 74 %
38 09-12-2019 06:11:17 10.5 C 74 %
39 09-12-2019 06:21:17 10.5 C 74 %
40 09-12-2019 06:31:17 10.5 C 74 %
41 09-12-2019 06:41:17 10.5 C 74 %
42 09-12-2019 06:51:18 10.5 C 74 %
43 09-12-2019 07:01:17 10.5 C 74 %
44 09-12-2019 07:11:18 10.5 C 74 %
45 09-12-2019 07:21:17 10.5 C 74 %
46 09-12-2019 07:31:17 10.5 C 74 %
47 09-12-2019 07:41:17 10.5 C 74 %
48 09-12-2019 07:51:18 10.4 C 74 %
49 09-12-2019 08:01:17 10.4 C 74 %
50 09-12-2019 08:11:17 10.5 C 74 %
Sensor: Nr:Datum:Temp:Feuchte:
G-T/H 51 09-12-2019 08:21:17 10.5 C 74 %
52 09-12-2019 08:31:17 10.4 C 74 %
53 09-12-2019 08:41:17 10.5 C 74 %
54 09-12-2019 08:51:17 10.4 C 74 %
55 09-12-2019 09:01:17 10.4 C 74 %
56 09-12-2019 09:11:17 10.4 C 74 %
57 09-12-2019 09:21:17 10.4 C 74 %
58 09-12-2019 09:31:17 10.4 C 74 %
59 09-12-2019 09:41:17 10.4 C 74 %
60 09-12-2019 09:51:17 10.4 C 74 %
61 09-12-2019 10:01:17 10.4 C 74 %
62 09-12-2019 10:11:17 10.4 C 74 %
63 09-12-2019 10:21:17 10.4 C 74 %
64 09-12-2019 10:31:18 10.4 C 74 %
65 09-12-2019 10:41:18 10.4 C 74 %
66 09-12-2019 10:51:17 10.4 C 74 %
67 09-12-2019 11:01:17 10.4 C 74 %
68 09-12-2019 11:11:17 10.4 C 74 %
69 09-12-2019 11:21:17 10.4 C 74 %
70 09-12-2019 11:31:18 10.4 C 74 %
71 09-12-2019 11:41:18 10.4 C 74 %
72 09-12-2019 11:51:17 10.4 C 74 %
73 09-12-2019 12:01:17 10.4 C 74 %
74 09-12-2019 12:11:17 10.4 C 74 %
75 09-12-2019 12:21:18 10.4 C 74 %
Sensor: Nr:Datum:Temp:Feuchte:
G-T/H 76 09-12-2019 12:31:17 10.4 C 74 %
77 09-12-2019 12:41:17 10.4 C 74 %
78 09-12-2019 12:51:17 10.4 C 74 %
79 09-12-2019 13:01:18 10.4 C 74 %
80 09-12-2019 13:11:18 10.4 C 74 %
81 09-12-2019 13:21:17 10.4 C 74 %
82 09-12-2019 13:31:17 10.4 C 74 %
83 09-12-2019 13:41:17 10.4 C 74 %
84 09-12-2019 13:51:17 10.4 C 74 %
85 09-12-2019 14:01:17 10.4 C 74 %
86 09-12-2019 14:11:17 10.4 C 74 %
87 09-12-2019 14:21:17 10.4 C 74 %
88 09-12-2019 14:31:17 10.5 C 74 %
89 09-12-2019 14:41:17 10.4 C 74 %
90 09-12-2019 14:51:18 10.4 C 74 %
91 09-12-2019 15:01:17 10.5 C 74 %
92 09-12-2019 15:11:17 10.5 C 74 %
93 09-12-2019 15:21:17 10.5 C 74 %
94 09-12-2019 15:31:18 10.5 C 74 %
95 09-12-2019 15:41:18 10.5 C 74 %
96 09-12-2019 15:51:17 10.4 C 74 %
97 09-12-2019 16:01:18 10.5 C 74 %
98 09-12-2019 16:11:18 10.5 C 74 %
99 09-12-2019 16:21:17 10.5 C 74 %
100 09-12-2019 16:31:18 10.5 C 74 %
Sensor: Nr:Datum:Temp:Feuchte:
G-T/H 101 09-12-2019 16:41:18 10.5 C 74 %
102 09-12-2019 16:51:17 10.4 C 74 %
103 09-12-2019 17:01:18 10.4 C 74 %
104 09-12-2019 17:11:18 10.5 C 74 %
105 09-12-2019 17:21:17 10.5 C 74 %
106 09-12-2019 17:31:17 10.5 C 74 %
107 09-12-2019 17:41:17 10.5 C 74 %
108 09-12-2019 17:51:17 10.5 C 74 %
109 09-12-2019 18:01:18 10.5 C 74 %
110 09-12-2019 18:11:18 10.5 C 74 %
111 09-12-2019 18:21:17 10.5 C 74 %
112 09-12-2019 18:31:17 10.5 C 74 %
113 09-12-2019 18:41:17 10.5 C 74 %
114 09-12-2019 18:51:18 10.5 C 74 %
115 09-12-2019 19:01:17 10.5 C 74 %
116 09-12-2019 19:11:17 10.5 C 74 %
117 09-12-2019 19:21:17 10.4 C 74 %
118 09-12-2019 19:31:17 10.5 C 74 %
119 09-12-2019 19:41:17 10.5 C 74 %
120 09-12-2019 19:51:17 10.5 C 74 %
121 09-12-2019 20:01:17 10.5 C 74 %
122 09-12-2019 20:11:17 10.4 C 74 %
123 09-12-2019 20:21:17 10.4 C 74 %
124 09-12-2019 20:31:17 10.4 C 74 %
125 09-12-2019 20:41:17 10.4 C 74 %
Sensor: Nr:Datum:Temp:Feuchte:
G-T/H 126 09-12-2019 20:51:17 10.4 C 74 %
127 09-12-2019 21:01:17 10.4 C 74 %
128 09-12-2019 21:11:18 10.4 C 74 %
129 09-12-2019 21:21:17 10.4 C 74 %
130 09-12-2019 21:31:17 10.4 C 74 %
131 09-12-2019 21:41:17 10.4 C 74 %
132 09-12-2019 21:51:17 10.4 C 74 %
133 09-12-2019 22:01:17 10.4 C 74 %
134 09-12-2019 22:11:17 10.4 C 74 %
135 09-12-2019 22:21:17 10.4 C 74 %
136 09-12-2019 22:31:17 10.3 C 74 %
137 09-12-2019 22:41:17 10.4 C 74 %
138 09-12-2019 22:51:18 10.4 C 74 %
139 09-12-2019 23:01:17 10.3 C 74 %
140 09-12-2019 23:11:17 10.3 C 74 %
141 09-12-2019 23:21:17 10.3 C 74 %
142 09-12-2019 23:31:18 10.2 C 73 %
143 09-12-2019 23:41:18 10.2 C 73 %
144 09-12-2019 23:51:17 10.2 C 73 %
145 10-12-2019 00:01:17 10.2 C 73 %
146 10-12-2019 00:11:17 10.2 C 72 %
147 10-12-2019 00:21:17 10.2 C 72 %
148 10-12-2019 00:31:17 10.1 C 72 %
149 10-12-2019 00:41:17 10.1 C 72 %
150 10-12-2019 00:51:17 10.1 C 72 %
Sensor: Nr:Datum:Temp:Feuchte:
G-T/H 151 10-12-2019 01:01:17 10.1 C 72 %
152 10-12-2019 01:11:17 10.1 C 71 %
153 10-12-2019 01:21:17 10.1 C 71 %
154 10-12-2019 01:31:18 10 C 71 %
155 10-12-2019 01:41:18 10 C 71 %
156 10-12-2019 01:51:17 10 C 71 %
157 10-12-2019 02:01:18 10 C 71 %
158 10-12-2019 02:11:18 9.9 C 72 %
159 10-12-2019 02:21:17 9.9 C 72 %
160 10-12-2019 02:31:17 9.9 C 71 %
161 10-12-2019 02:41:17 9.9 C 71 %
162 10-12-2019 02:51:17 9.9 C 71 %
163 10-12-2019 03:01:17 9.8 C 71 %
164 10-12-2019 03:11:17 9.8 C 71 %
165 10-12-2019 03:21:17 9.8 C 71 %
166 10-12-2019 03:31:17 9.8 C 71 %
167 10-12-2019 03:41:17 9.7 C 71 %
168 10-12-2019 03:51:17 9.8 C 71 %
169 10-12-2019 04:01:17 9.7 C 71 %
170 10-12-2019 04:11:17 9.7 C 71 %
171 10-12-2019 04:21:17 9.7 C 71 %
172 10-12-2019 04:31:18 9.7 C 71 %
173 10-12-2019 04:41:18 9.7 C 71 %
174 10-12-2019 04:51:17 9.7 C 71 %
175 10-12-2019 05:01:17 9.7 C 71 %
Sensor: Nr:Datum:Temp:Feuchte:
G-T/H 176 10-12-2019 05:11:17 9.7 C 71 %
177 10-12-2019 05:21:18 9.7 C 71 %
178 10-12-2019 05:31:18 9.7 C 71 %
179 10-12-2019 05:41:18 9.7 C 71 %
180 10-12-2019 05:51:17 9.7 C 71 %
181 10-12-2019 06:01:17 9.7 C 71 %
182 10-12-2019 06:11:17 9.7 C 71 %
183 10-12-2019 06:21:18 9.6 C 71 %
184 10-12-2019 06:31:17 9.6 C 71 %
185 10-12-2019 06:41:17 9.6 C 71 %
186 10-12-2019 06:51:17 9.6 C 71 %
187 10-12-2019 07:01:18 9.6 C 72 %
188 10-12-2019 07:11:18 9.6 C 72 %
189 10-12-2019 07:21:17 9.6 C 72 %
190 10-12-2019 07:31:17 9.6 C 72 %
191 10-12-2019 07:41:17 9.6 C 72 %
192 10-12-2019 07:51:17 9.6 C 72 %
193 10-12-2019 08:01:17 9.5 C 71 %
194 10-12-2019 08:11:17 9.5 C 71 %
195 10-12-2019 08:21:17 9.5 C 71 %
196 10-12-2019 08:31:18 9.5 C 71 %
197 10-12-2019 08:41:18 9.4 C 71 %
198 10-12-2019 08:51:17 9.4 C 71 %
199 10-12-2019 09:01:17 9.4 C 71 %
200 10-12-2019 09:11:17 9.4 C 71 %
Sensor: Nr:Datum:Temp:Feuchte:
G-T/H 201 10-12-2019 09:21:17 9.4 C 71 %
202 10-12-2019 09:31:17 9.4 C 71 %
203 10-12-2019 09:41:17 9.4 C 71 %
204 10-12-2019 09:51:17 9.4 C 71 %
205 10-12-2019 10:01:17 9.4 C 71 %
206 10-12-2019 10:11:17 9.4 C 71 %
207 10-12-2019 10:21:17 9.3 C 71 %
208 10-12-2019 10:31:17 9.3 C 71 %
209 10-12-2019 10:41:17 9.3 C 71 %
210 10-12-2019 10:51:17 9.3 C 71 %
211 10-12-2019 11:01:17 9.3 C 71 %
212 10-12-2019 11:11:17 9.3 C 71 %
213 10-12-2019 11:21:17 9.3 C 71 %
214 10-12-2019 11:31:18 9.3 C 71 %
215 10-12-2019 11:41:18 9.3 C 71 %
216 10-12-2019 11:51:17 9.2 C 71 %
217 10-12-2019 12:01:17 9.3 C 72 %
218 10-12-2019 12:11:17 9.2 C 72 %
219 10-12-2019 12:21:17 9.3 C 72 %
220 10-12-2019 12:31:17 9.2 C 72 %
221 10-12-2019 12:41:17 9.2 C 72 %
222 10-12-2019 12:51:17 9.2 C 72 %
223 10-12-2019 13:01:17 9.2 C 72 %
224 10-12-2019 13:11:17 9.2 C 72 %
225 10-12-2019 13:21:17 9.2 C 72 %
Sensor: Nr:Datum:Temp:Feuchte:
G-T/H 226 10-12-2019 13:31:17 9.2 C 72 %
227 10-12-2019 13:41:17 9.2 C 72 %
228 10-12-2019 13:51:17 9.2 C 72 %
229 10-12-2019 14:01:17 9.2 C 72 %
230 10-12-2019 14:11:17 9.2 C 72 %
231 10-12-2019 14:21:17 9.2 C 72 %
232 10-12-2019 14:31:18 9.2 C 72 %
233 10-12-2019 14:41:18 9.1 C 72 %
234 10-12-2019 14:51:17 9.1 C 72 %
235 10-12-2019 15:01:17 9.1 C 72 %
236 10-12-2019 15:11:17 9.1 C 72 %
237 10-12-2019 15:21:17 9.1 C 72 %
238 10-12-2019 15:31:17 9.1 C 72 %
239 10-12-2019 15:41:18 9.1 C 72 %
240 10-12-2019 15:51:17 9.1 C 72 %
241 10-12-2019 16:01:17 9.1 C 72 %
242 10-12-2019 16:11:17 9.1 C 72 %
243 10-12-2019 16:21:17 9.1 C 72 %
244 10-12-2019 16:31:17 9.1 C 72 %
245 10-12-2019 16:41:17 9.1 C 72 %
246 10-12-2019 16:51:17 9.1 C 72 %
247 10-12-2019 17:01:17 9.1 C 72 %
248 10-12-2019 17:11:17 9.1 C 72 %
249 10-12-2019 17:21:18 9.1 C 72 %
250 10-12-2019 17:31:17 9 C 72 %
Sensor: Nr:Datum:Temp:Feuchte:
G-T/H 251 10-12-2019 17:41:17 9 C 71 %
252 10-12-2019 17:51:17 9 C 71 %
253 10-12-2019 18:01:17 9 C 71 %
254 10-12-2019 18:11:17 9 C 71 %
255 10-12-2019 18:21:17 9 C 71 %
256 10-12-2019 18:31:17 8.9 C 72 %
257 10-12-2019 18:41:17 9 C 71 %
258 10-12-2019 18:51:17 8.9 C 72 %
259 10-12-2019 19:01:17 8.9 C 72 %
260 10-12-2019 19:11:17 8.9 C 72 %
261 10-12-2019 19:21:17 8.9 C 72 %
262 10-12-2019 19:31:17 9 C 71 %
263 10-12-2019 19:41:18 8.9 C 72 %
264 10-12-2019 19:51:17 8.9 C 72 %
265 10-12-2019 20:01:17 8.9 C 72 %
266 10-12-2019 20:11:17 8.9 C 72 %
267 10-12-2019 20:21:17 8.9 C 72 %
268 10-12-2019 20:31:18 8.9 C 72 %
269 10-12-2019 20:41:18 8.9 C 72 %
270 10-12-2019 20:51:17 8.9 C 72 %
271 10-12-2019 21:01:17 8.9 C 72 %
272 10-12-2019 21:11:17 8.9 C 72 %
273 10-12-2019 21:21:17 8.9 C 72 %
274 10-12-2019 21:31:17 8.9 C 72 %
275 10-12-2019 21:41:18 8.9 C 72 %
Sensor: Nr:Datum:Temp:Feuchte:
G-T/H 276 10-12-2019 21:51:17 8.9 C 72 %
277 10-12-2019 22:01:17 8.8 C 72 %
278 10-12-2019 22:11:17 8.8 C 72 %
279 10-12-2019 22:21:17 8.9 C 72 %
280 10-12-2019 22:31:17 8.8 C 72 %
281 10-12-2019 22:41:17 8.8 C 72 %
282 10-12-2019 22:51:18 8.8 C 72 %
283 10-12-2019 23:01:17 8.8 C 72 %
284 10-12-2019 23:11:17 8.8 C 72 %
285 10-12-2019 23:21:17 8.8 C 73 %
286 10-12-2019 23:31:17 8.8 C 73 %
287 10-12-2019 23:41:17 8.8 C 73 %
288 10-12-2019 23:51:17 8.8 C 73 %

Legende:
   Min
   Max


Maximal/Minimal-Werte vom 09.12.2019 - 10.12.2019

Sensor Min Max Avg
Temp
(Aussen-T/F)
0.1 °C
10-12-2019  09:01:17
8.8 °C
09-12-2019  13:51:17
4.73 °C
Feuchte
(Aussen-T/F)
20 %
09-12-2019  00:01:18
46 %
10-12-2019  04:51:17
28.99 %
Temp
(G-T/H)
8.8 °C
10-12-2019  22:01:17
10.7 °C
09-12-2019  00:01:18
9.91 °C
Feuchte
(G-T/H)
71 %
10-12-2019  01:11:17
75 %
09-12-2019  00:01:18
72.85 %

Die Daten stammen von einer Davis Vantage Pro 2 Wetter-Station und werden unter Linux mit der Software wview2wettercgi und aufbereitet. Alle Angaben erfolgen ohne Gewähr für ihre Vollständigkeit oder Richtigkeit.
Kontakt: Rainer Krienke krienke@uni-koblenz.de . Meine Webseiten an der Uni Koblenz oder privat.
Version: $Revision: 0.78 $